createdAt,value
2017-08-15T00:00:52.507Z,96777.96
2017-08-15T00:03:18.319Z,96772.88
2017-08-15T00:05:44.059Z,96773.05
2017-08-15T00:08:09.803Z,96776.16
2017-08-15T00:10:35.576Z,96774.20
2017-08-15T00:13:01.314Z,96769.09
2017-08-15T00:15:27.078Z,96775.98
2017-08-15T00:17:52.810Z,96778.51
2017-08-15T00:20:18.557Z,96774.99
2017-08-15T00:22:44.413Z,96772.92
2017-08-15T00:25:10.152Z,96778.14
2017-08-15T00:27:35.924Z,96778.63
2017-08-15T00:30:01.679Z,96776.13
2017-08-15T00:32:27.450Z,96773.80
2017-08-15T00:34:53.308Z,96779.42
2017-08-15T00:37:19.053Z,96768.81
2017-08-15T00:39:44.800Z,96761.52
2017-08-15T00:42:10.586Z,96759.84
2017-08-15T00:44:36.365Z,96757.39
2017-08-15T00:47:02.097Z,96760.56
2017-08-15T00:49:27.891Z,96757.66
2017-08-15T00:51:53.656Z,96761.70
2017-08-15T00:54:19.401Z,96757.55
2017-08-15T00:56:45.202Z,96753.46
2017-08-15T00:59:10.930Z,96749.15
2017-08-15T01:01:36.713Z,96747.77
2017-08-15T01:04:02.494Z,96745.58
2017-08-15T01:06:28.238Z,96746.58
2017-08-15T01:08:54.005Z,96752.80
2017-08-15T01:11:19.786Z,96752.67
2017-08-15T01:13:45.543Z,96749.61
2017-08-15T01:16:11.300Z,96756.82
2017-08-15T01:18:37.089Z,96759.38
2017-08-15T01:21:02.837Z,96755.50
2017-08-15T01:23:28.593Z,96751.35
2017-08-15T01:25:54.368Z,96746.61
2017-08-15T01:28:20.198Z,96749.34
2017-08-15T01:30:45.928Z,96747.06
2017-08-15T01:33:11.709Z,96739.56
2017-08-15T01:35:37.474Z,96743.31
2017-08-15T01:38:03.246Z,96744.70
2017-08-15T01:40:29.069Z,96743.52
2017-08-15T01:42:54.861Z,96749.47
2017-08-15T01:45:20.624Z,96748.78
2017-08-15T01:47:46.402Z,96751.73
2017-08-15T01:50:12.217Z,96751.41
2017-08-15T01:52:37.955Z,96741.80
2017-08-15T01:55:03.708Z,96739.41
2017-08-15T01:57:29.484Z,96737.06
2017-08-15T01:59:55.248Z,96732.28
2017-08-15T02:02:21.008Z,96737.48
2017-08-15T02:04:46.749Z,96734.45
2017-08-15T02:07:12.496Z,96737.98
2017-08-15T02:09:38.239Z,96735.84
2017-08-15T02:12:04.004Z,96739.66
2017-08-15T02:14:29.768Z,96736.68
2017-08-15T02:16:55.524Z,96738.74
2017-08-15T02:19:21.289Z,96742.67
2017-08-15T02:21:47.068Z,96745.34
2017-08-15T02:26:49.904Z,96748.91
2017-08-15T02:29:15.646Z,96747.65
2017-08-15T02:31:41.400Z,96743.98
2017-08-15T02:34:07.168Z,96744.90
2017-08-15T02:36:32.950Z,96743.19
2017-08-15T02:38:58.699Z,96751.96
2017-08-15T02:41:24.449Z,96743.98
2017-08-15T02:43:50.220Z,96746.37
2017-08-15T02:46:15.993Z,96746.19
2017-08-15T02:48:41.771Z,96754.80
2017-08-15T02:51:07.580Z,96744.75
2017-08-15T02:53:33.336Z,96748.62
2017-08-15T02:55:59.114Z,96742.97
2017-08-15T02:58:24.861Z,96744.34
2017-08-15T03:00:50.614Z,96742.30
2017-08-15T03:03:16.403Z,96746.60
2017-08-15T03:05:42.146Z,96743.25
2017-08-15T03:08:07.882Z,96747.33
2017-08-15T03:10:33.700Z,96742.69
2017-08-15T03:12:59.429Z,96741.84
2017-08-15T03:15:25.281Z,96752.45
2017-08-15T03:17:51.019Z,96748.72
2017-08-15T03:20:16.788Z,96735.27
2017-08-15T03:22:42.572Z,96739.37
2017-08-15T03:25:08.311Z,96748.36
2017-08-15T03:27:34.079Z,96737.38
2017-08-15T03:29:59.869Z,96737.13
2017-08-15T03:32:25.693Z,96737.68
2017-08-15T03:34:51.441Z,96741.42
2017-08-15T03:37:17.213Z,96741.78
2017-08-15T03:39:42.962Z,96730.37
2017-08-15T03:42:08.727Z,96738.02
2017-08-15T03:44:34.489Z,96732.86
2017-08-15T03:47:00.291Z,96732.22
2017-08-15T03:49:26.049Z,96737.18
2017-08-15T03:51:51.806Z,96732.83
2017-08-15T03:54:17.573Z,96733.84
2017-08-15T03:56:43.308Z,96729.23
2017-08-15T03:59:09.062Z,96737.64
2017-08-15T04:01:34.918Z,96742.00
2017-08-15T04:04:00.663Z,96744.38
2017-08-15T04:06:26.391Z,96743.59
2017-08-15T04:08:52.154Z,96747.13
2017-08-15T04:11:18.040Z,96743.53
2017-08-15T04:13:43.772Z,96740.91
2017-08-15T04:16:09.516Z,96747.27
2017-08-15T04:18:35.284Z,96745.23
2017-08-15T04:21:01.088Z,96744.45
2017-08-15T04:23:26.836Z,96749.23
2017-08-15T04:25:52.653Z,96750.37
2017-08-15T04:28:18.439Z,96760.59
2017-08-15T04:30:44.180Z,96749.68
2017-08-15T04:33:09.938Z,96750.02
2017-08-15T04:35:35.702Z,96747.59
2017-08-15T04:38:01.484Z,96747.73
2017-08-15T04:40:27.233Z,96747.84
2017-08-15T04:42:52.985Z,96742.94
2017-08-15T04:45:18.721Z,96752.73
2017-08-15T04:47:44.536Z,96754.28
2017-08-15T04:50:10.275Z,96754.91
2017-08-15T04:52:36.050Z,96752.69
2017-08-15T04:55:01.868Z,96755.27
2017-08-15T04:57:27.630Z,96750.62
2017-08-15T04:59:53.383Z,96747.86
2017-08-15T05:02:19.144Z,96744.00
2017-08-15T05:04:44.902Z,96742.31
2017-08-15T05:07:10.653Z,96739.98
2017-08-15T05:09:36.403Z,96733.65
2017-08-15T05:12:02.173Z,96744.81
2017-08-15T05:14:27.915Z,96743.57
2017-08-15T05:16:53.638Z,96739.77
2017-08-15T05:19:19.465Z,96743.82
2017-08-15T05:21:45.333Z,96742.22
2017-08-15T05:24:11.076Z,96735.02
2017-08-15T05:26:36.989Z,96742.05
2017-08-15T05:29:02.709Z,96739.06
2017-08-15T05:31:28.716Z,96744.64
2017-08-15T05:33:54.488Z,96750.58
2017-08-15T05:36:20.318Z,96751.44
2017-08-15T05:38:46.169Z,96753.66
2017-08-15T05:41:11.959Z,96756.38
2017-08-15T05:43:37.799Z,96758.23
2017-08-15T05:46:03.660Z,96756.58
2017-08-15T05:48:29.432Z,96758.62
2017-08-15T05:50:55.308Z,96759.62
2017-08-15T05:53:21.083Z,96767.78
2017-08-15T05:55:46.906Z,96766.84
2017-08-15T05:58:26.732Z,96761.69
2017-08-15T06:00:55.755Z,96759.84
2017-08-15T06:03:26.869Z,96762.61
2017-08-15T06:05:56.852Z,96763.44
2017-08-15T06:08:23.375Z,96759.70
2017-08-15T06:10:49.178Z,96754.67
2017-08-15T06:13:16.431Z,96763.09
2017-08-15T06:15:42.260Z,96760.33
2017-08-15T06:18:08.991Z,96762.28
2017-08-15T06:20:35.514Z,96761.45
2017-08-15T06:23:07.291Z,96760.38
2017-08-15T06:25:34.976Z,96761.22
2017-08-15T06:28:02.532Z,96767.11
2017-08-15T06:30:32.748Z,96766.92
2017-08-15T06:32:59.013Z,96769.27
2017-08-15T06:35:25.515Z,96769.87
2017-08-15T06:37:55.015Z,96777.92
2017-08-15T06:40:20.870Z,96775.20
2017-08-15T06:42:46.729Z,96758.02
2017-08-15T06:45:20.205Z,96766.59
2017-08-15T06:47:51.037Z,96760.62
2017-08-15T06:50:16.795Z,96751.83
2017-08-15T06:52:42.550Z,96749.48
2017-08-15T06:55:08.417Z,96752.58
2017-08-15T06:57:34.157Z,96752.51
2017-08-15T06:59:59.937Z,96745.86
2017-08-15T07:02:25.764Z,96752.58
2017-08-15T07:04:51.518Z,96754.45
2017-08-15T07:22:29.865Z,96750.36
2017-08-15T07:24:55.646Z,96746.17
2017-08-15T07:27:21.587Z,96755.85
2017-08-15T07:29:47.415Z,96745.95
2017-08-15T07:32:13.200Z,96750.00
2017-08-15T07:34:39.131Z,96745.31
2017-08-15T07:37:04.931Z,96745.80
2017-08-15T07:39:30.743Z,96744.09
2017-08-15T07:41:56.551Z,96741.76
2017-08-15T07:44:22.945Z,96744.63
2017-08-15T07:46:48.836Z,96742.98
2017-08-15T07:49:14.625Z,96736.91
2017-08-15T07:51:40.475Z,96738.86
2017-08-15T07:54:06.267Z,96733.58
2017-08-15T07:56:32.112Z,96732.73
2017-08-15T07:58:57.912Z,96730.22
2017-08-15T08:01:23.767Z,96728.08
2017-08-15T08:03:49.631Z,96728.11
2017-08-15T08:06:15.388Z,96730.80
2017-08-15T08:08:41.209Z,96724.05
2017-08-15T08:11:07.071Z,96722.17
2017-08-15T08:13:32.853Z,96712.08
2017-08-15T08:15:58.767Z,96706.17
2017-08-15T08:18:24.595Z,96715.52
2017-08-15T08:20:50.444Z,96714.63
2017-08-15T08:23:16.213Z,96725.45
2017-08-15T08:25:42.122Z,96731.82
2017-08-15T08:28:07.944Z,96739.16
2017-08-15T08:30:33.718Z,96726.50
2017-08-15T08:32:59.523Z,96732.80
2017-08-15T08:35:25.331Z,96735.05
2017-08-15T08:37:51.124Z,96740.10
2017-08-15T08:40:48.875Z,96739.36
2017-08-15T08:43:14.773Z,96747.69
2017-08-15T08:45:40.558Z,96747.23
2017-08-15T08:48:06.396Z,96748.44
2017-08-15T08:50:32.191Z,96746.51
2017-08-15T08:52:58.051Z,96757.91
2017-08-15T08:55:23.854Z,96750.67
2017-08-15T08:58:20.906Z,96761.47
2017-08-15T09:00:46.699Z,96764.11
2017-08-15T09:03:12.524Z,96767.89
2017-08-15T09:05:38.390Z,96761.58
2017-08-15T09:08:04.236Z,96756.64
2017-08-15T09:10:30.124Z,96754.72
2017-08-15T09:12:55.974Z,96752.31
2017-08-15T09:15:53.760Z,96759.86
2017-08-15T09:18:19.663Z,96756.67
2017-08-15T09:20:45.463Z,96757.40
2017-08-15T09:23:11.407Z,96762.03
2017-08-15T09:25:37.707Z,96752.93
2017-08-15T09:28:04.042Z,96758.69
2017-08-15T09:30:30.479Z,96756.86
2017-08-15T09:32:56.628Z,96757.57
2017-08-15T09:35:23.051Z,96760.23
2017-08-15T09:37:48.854Z,96759.28
2017-08-15T09:40:14.635Z,96749.31
2017-08-15T09:42:40.435Z,96756.23
2017-08-15T09:45:06.214Z,96763.75
2017-08-15T09:47:32.064Z,96751.83
2017-08-15T09:49:57.851Z,96761.38
2017-08-15T09:52:23.634Z,96751.51
2017-08-15T09:54:49.474Z,96755.30
2017-08-15T09:57:15.340Z,96746.10
2017-08-15T09:59:41.098Z,96748.38
2017-08-15T10:02:06.884Z,96748.06
2017-08-15T10:04:32.813Z,96750.55
2017-08-15T10:06:58.619Z,96750.87
2017-08-15T10:09:24.426Z,96742.80
2017-08-15T10:11:50.257Z,96742.58
2017-08-15T10:14:16.044Z,96747.03
2017-08-15T10:16:41.919Z,96743.74
2017-08-15T10:19:07.687Z,96734.96
2017-08-15T10:21:33.472Z,96738.05
2017-08-15T10:23:59.286Z,96737.59
2017-08-15T10:26:25.184Z,96747.88
2017-08-15T10:28:50.963Z,96742.72
2017-08-15T10:31:16.776Z,96751.55
2017-08-15T10:33:42.597Z,96743.98
2017-08-15T10:36:08.408Z,96743.47
2017-08-15T10:38:34.338Z,96736.86
2017-08-15T10:41:00.163Z,96736.82
2017-08-15T10:43:25.925Z,96740.34
2017-08-15T10:45:51.687Z,96735.14
2017-08-15T10:48:17.492Z,96737.78
2017-08-15T10:50:43.308Z,96734.80
2017-08-15T10:53:09.145Z,96734.01
2017-08-15T10:55:35.036Z,96736.94
2017-08-15T10:58:00.945Z,96737.86
2017-08-15T11:00:26.738Z,96733.25
2017-08-15T11:02:52.532Z,96726.26
2017-08-15T11:05:18.344Z,96719.11
2017-08-15T11:07:44.240Z,96721.79
2017-08-15T11:10:10.006Z,96714.70
2017-08-15T11:12:35.775Z,96722.91
2017-08-15T11:15:01.568Z,96716.30
2017-08-15T11:17:27.345Z,96712.03
2017-08-15T11:19:53.143Z,96722.00
2017-08-15T11:22:18.947Z,96724.91
2017-08-15T11:24:44.757Z,96726.85
2017-08-15T11:27:10.545Z,96721.36
2017-08-15T11:29:36.351Z,96720.45
2017-08-15T11:32:02.238Z,96712.83
2017-08-15T11:34:28.032Z,96713.66
2017-08-15T11:36:53.895Z,96716.47
2017-08-15T11:39:19.669Z,96723.56
2017-08-15T11:41:45.547Z,96716.45
2017-08-15T11:44:11.420Z,96711.20
2017-08-15T11:46:37.206Z,96714.00
2017-08-15T11:49:02.996Z,96719.47
2017-08-15T11:51:28.767Z,96716.83
2017-08-15T11:53:54.594Z,96711.34
2017-08-15T11:56:20.395Z,96708.44
2017-08-15T11:58:46.193Z,96713.30
2017-08-15T12:01:12.014Z,96703.19
2017-08-15T12:03:37.827Z,96714.94
2017-08-15T12:06:03.604Z,96706.97
2017-08-15T12:08:29.428Z,96709.02
2017-08-15T12:10:55.200Z,96706.34
2017-08-15T12:13:20.975Z,96700.82
2017-08-15T12:15:46.820Z,96690.94
2017-08-15T12:18:12.723Z,96693.97
2017-08-15T12:20:38.500Z,96699.56
2017-08-15T12:23:04.379Z,96713.91
2017-08-15T12:25:30.200Z,96722.06
2017-08-15T12:27:55.966Z,96780.05
2017-08-15T12:30:21.776Z,96849.05
2017-08-15T12:32:47.568Z,96861.52
2017-08-15T12:35:13.335Z,96813.05
2017-08-15T12:37:39.169Z,96814.95
2017-08-15T12:40:04.934Z,96812.79
2017-08-15T12:42:30.731Z,96820.74
2017-08-15T12:44:56.563Z,96802.39
2017-08-15T12:47:22.554Z,96798.73
2017-08-15T12:49:48.322Z,96791.02
2017-08-15T12:52:14.129Z,96789.73
2017-08-15T12:54:39.930Z,96789.06
2017-08-15T12:57:05.739Z,96774.86
2017-08-15T12:59:31.503Z,96770.64
2017-08-15T13:01:58.187Z,96771.11
2017-08-15T13:04:24.034Z,96781.52
2017-08-15T13:06:49.803Z,96787.78
2017-08-15T13:09:15.589Z,96799.11
2017-08-15T13:11:41.408Z,96798.45
2017-08-15T13:14:07.172Z,96807.02
2017-08-15T13:16:33.012Z,96811.86
2017-08-15T13:18:58.837Z,96814.15
2017-08-15T13:21:24.612Z,96816.45
2017-08-15T13:23:50.382Z,96814.44
2017-08-15T13:26:16.184Z,96799.58
2017-08-15T13:28:42.092Z,96794.70
2017-08-15T13:31:08.019Z,96781.51
2017-08-15T13:33:33.895Z,96782.81
2017-08-15T13:35:59.714Z,96780.76
2017-08-15T13:38:25.495Z,96780.23
2017-08-15T13:40:51.344Z,96789.52
2017-08-15T13:43:17.195Z,96782.13
2017-08-15T13:45:42.977Z,96780.23
2017-08-15T13:48:09.100Z,96782.99
2017-08-15T13:50:34.891Z,96787.84
2017-08-15T13:53:00.708Z,96783.27
2017-08-15T13:55:26.581Z,96776.05
2017-08-15T13:57:52.505Z,96774.19
2017-08-15T14:00:18.291Z,96775.20
2017-08-15T14:02:44.140Z,96776.08
2017-08-15T14:05:09.965Z,96772.13
2017-08-15T14:07:35.766Z,96777.23
2017-08-15T14:10:01.571Z,96779.59
2017-08-15T14:12:27.388Z,96779.66
2017-08-15T14:14:53.282Z,96783.03
2017-08-15T14:17:19.076Z,96793.03
2017-08-15T14:19:44.847Z,96789.30
2017-08-15T14:22:10.654Z,96794.73
2017-08-15T14:24:36.426Z,96791.44
2017-08-15T14:27:02.310Z,96787.01
2017-08-15T14:29:28.129Z,96784.23
2017-08-15T14:31:54.071Z,96781.78
2017-08-15T14:34:19.831Z,96783.66
2017-08-15T14:36:45.667Z,96774.59
2017-08-15T14:39:11.608Z,96777.59
2017-08-15T14:41:37.421Z,96771.81
2017-08-15T14:44:03.255Z,96764.05
2017-08-15T14:46:29.123Z,96767.25
2017-08-15T14:48:54.907Z,96769.09
2017-08-15T14:51:20.686Z,96772.94
2017-08-15T14:53:46.502Z,96769.14
2017-08-15T14:56:12.284Z,96768.64
2017-08-15T14:58:38.096Z,96763.41
2017-08-15T15:01:03.959Z,96761.30
2017-08-15T15:03:29.884Z,96749.41
2017-08-15T15:05:55.659Z,96755.66
2017-08-15T15:08:21.447Z,96747.73
2017-08-15T15:10:47.255Z,96750.84
2017-08-15T15:13:13.058Z,96755.47
2017-08-15T15:15:38.884Z,96748.98
2017-08-15T15:18:04.699Z,96754.41
2017-08-15T15:20:30.556Z,96761.77
2017-08-15T15:22:56.482Z,96764.16
2017-08-15T15:25:22.323Z,96770.22
2017-08-15T15:27:48.104Z,96766.67
2017-08-15T15:30:13.915Z,96772.34
2017-08-15T15:32:39.739Z,96771.25
2017-08-15T15:35:05.552Z,96776.46
2017-08-15T15:37:31.376Z,96774.56
2017-08-15T15:39:57.204Z,96782.63
2017-08-15T15:42:23.055Z,96783.23
2017-08-15T15:44:48.857Z,96790.74
2017-08-15T15:47:15.523Z,96786.45
2017-08-15T15:49:41.380Z,96773.86
2017-08-15T15:52:07.254Z,96783.79
2017-08-15T15:54:33.027Z,96780.78
2017-08-15T15:56:58.802Z,96786.49
2017-08-15T15:59:24.618Z,96784.93
2017-08-15T16:01:50.472Z,96787.84
2017-08-15T16:04:16.263Z,96788.65
2017-08-15T16:06:42.046Z,96790.72
2017-08-15T16:09:07.839Z,96793.66
2017-08-15T16:11:33.684Z,96791.69
2017-08-15T16:13:59.467Z,96782.75
2017-08-15T16:16:25.239Z,96783.66
2017-08-15T16:18:51.062Z,96814.63
2017-08-15T16:21:16.841Z,96813.68
2017-08-15T16:23:42.618Z,96817.55
2017-08-15T16:26:08.397Z,96829.80
2017-08-15T16:28:34.167Z,96820.21
2017-08-15T16:31:00.008Z,96818.17
2017-08-15T16:33:25.784Z,96809.65
2017-08-15T16:35:51.602Z,96796.53
2017-08-15T16:38:17.393Z,96800.33
2017-08-15T16:40:43.251Z,96794.38
2017-08-15T16:43:09.064Z,96798.13
2017-08-15T16:45:34.904Z,96795.33
2017-08-15T16:48:00.704Z,96805.51
2017-08-15T16:50:26.558Z,96822.75
2017-08-15T16:52:52.410Z,96818.61
2017-08-15T16:55:18.179Z,96824.27
2017-08-15T16:57:44.034Z,96826.45
2017-08-15T17:00:09.890Z,96831.03
2017-08-15T17:02:35.777Z,96820.58
2017-08-15T17:05:01.620Z,96821.00
2017-08-15T17:07:27.451Z,96812.37
2017-08-15T17:09:53.235Z,96799.91
2017-08-15T17:12:19.098Z,96795.34
2017-08-15T17:14:44.963Z,96798.55
2017-08-15T17:17:10.731Z,96786.13
2017-08-15T17:19:36.515Z,96781.89
2017-08-15T17:22:02.365Z,96780.38
2017-08-15T17:24:28.183Z,96781.67
2017-08-15T17:26:53.987Z,96772.19
2017-08-15T17:29:19.787Z,96775.92
2017-08-15T17:31:45.588Z,96779.28
2017-08-15T17:34:11.393Z,96785.42
2017-08-15T17:36:37.242Z,96796.78
2017-08-15T17:39:03.020Z,96807.98
2017-08-15T17:41:28.831Z,96813.30
2017-08-15T17:43:54.592Z,96818.48
2017-08-15T17:46:20.416Z,96821.89
2017-08-15T17:48:46.183Z,96836.84
2017-08-15T17:51:11.983Z,96851.16
2017-08-15T17:53:37.752Z,96847.86
2017-08-15T17:56:03.528Z,96845.58
2017-08-15T17:58:29.299Z,96849.67
2017-08-15T18:00:55.098Z,96855.06
2017-08-15T18:03:20.874Z,96852.43
2017-08-15T18:05:46.647Z,96858.88
2017-08-15T18:08:12.458Z,96855.63
2017-08-15T18:10:38.220Z,96862.96
2017-08-15T18:13:03.983Z,96865.52
2017-08-15T18:15:29.782Z,96862.55
2017-08-15T18:17:56.579Z,96870.85
2017-08-15T18:20:22.366Z,96869.94
2017-08-15T18:22:48.136Z,96869.37
2017-08-15T18:25:13.931Z,96868.22
2017-08-15T18:27:39.695Z,96876.36
2017-08-15T18:30:05.451Z,96879.27
2017-08-15T18:32:31.355Z,96877.78
2017-08-15T18:34:57.135Z,96880.53
2017-08-15T18:37:22.985Z,96881.77
2017-08-15T18:39:48.742Z,96878.88
2017-08-15T18:42:14.523Z,96877.28
2017-08-15T18:44:40.334Z,96875.32
2017-08-15T18:47:06.875Z,96883.09
2017-08-15T18:49:32.722Z,96883.11
2017-08-15T18:51:58.558Z,96888.64
2017-08-15T18:54:24.347Z,96878.47
2017-08-15T18:56:50.191Z,96880.12
2017-08-15T18:59:15.974Z,96887.34
2017-08-15T19:01:41.778Z,96886.17
2017-08-15T19:04:07.551Z,96891.78
2017-08-15T19:06:33.334Z,96889.81
2017-08-15T19:08:59.163Z,96890.89
2017-08-15T19:11:24.999Z,96899.70
2017-08-15T19:13:50.800Z,96908.20
2017-08-15T19:16:16.687Z,96920.86
2017-08-15T19:18:42.565Z,96931.22
2017-08-15T19:21:08.366Z,96935.48
2017-08-15T19:23:34.190Z,96926.30
2017-08-15T19:26:00.075Z,96927.86
2017-08-15T19:28:25.891Z,96935.63
2017-08-15T19:30:51.720Z,96940.97
2017-08-15T19:33:17.505Z,96944.58
2017-08-15T19:35:43.288Z,96947.41
2017-08-15T19:38:09.127Z,96935.90
2017-08-15T19:40:34.912Z,96945.52
2017-08-15T19:43:00.712Z,96946.95
2017-08-15T19:45:26.514Z,96948.80
2017-08-15T19:47:52.439Z,96942.55
2017-08-15T19:50:18.214Z,96947.00
2017-08-15T19:52:43.985Z,96940.88
2017-08-15T19:55:09.783Z,96941.64
2017-08-15T19:57:35.586Z,96938.28
2017-08-15T20:00:01.379Z,96942.20
2017-08-15T20:02:27.166Z,96939.75
2017-08-15T20:04:52.971Z,96937.74
2017-08-15T20:07:18.771Z,96941.82
2017-08-15T20:09:44.538Z,96934.58
2017-08-15T20:12:10.367Z,96933.69
2017-08-15T20:14:36.128Z,96936.30
2017-08-15T20:17:01.942Z,96933.96
2017-08-15T20:19:27.787Z,96925.59
2017-08-15T20:21:53.669Z,96922.84
2017-08-15T20:24:19.480Z,96925.64
2017-08-15T20:26:45.231Z,96913.42
2017-08-15T20:29:11.038Z,96925.39
2017-08-15T20:31:36.819Z,96927.34
2017-08-15T20:34:02.591Z,96917.95
2017-08-15T20:36:28.480Z,96922.69
2017-08-15T20:38:54.250Z,96924.41
2017-08-15T20:41:19.996Z,96927.81
2017-08-15T20:43:45.775Z,96928.67
2017-08-15T20:46:11.616Z,96928.95
2017-08-15T20:48:37.476Z,96940.73
2017-08-15T20:51:03.334Z,96938.57
2017-08-15T20:53:29.257Z,96934.47
2017-08-15T20:55:55.039Z,96934.51
2017-08-15T20:58:20.811Z,96930.34
2017-08-15T21:00:46.626Z,96923.23
2017-08-15T21:03:12.453Z,96922.97
2017-08-15T21:05:38.226Z,96923.95
2017-08-15T21:08:04.064Z,96922.89
2017-08-15T21:10:29.845Z,96937.47
2017-08-15T21:12:55.636Z,96939.22
2017-08-15T21:15:21.467Z,96947.16
2017-08-15T21:17:47.302Z,96953.66
2017-08-15T21:20:13.073Z,96937.49
2017-08-15T21:22:38.875Z,96938.63
2017-08-15T21:25:04.624Z,96943.11
2017-08-15T21:27:30.410Z,96945.78
2017-08-15T21:29:56.172Z,96948.34
2017-08-15T21:32:21.953Z,96944.92
2017-08-15T21:34:47.756Z,96950.55
2017-08-15T21:37:13.539Z,96947.32
2017-08-15T21:39:39.321Z,96950.92
2017-08-15T21:42:05.073Z,96955.77
2017-08-15T21:44:30.859Z,96959.36
2017-08-15T21:46:56.684Z,96954.72
2017-08-15T21:49:22.419Z,96956.67
2017-08-15T21:51:48.237Z,96955.49
2017-08-15T21:54:14.010Z,96961.52
2017-08-15T21:56:39.770Z,96967.73
2017-08-15T21:59:05.647Z,96976.89
2017-08-15T22:01:37.872Z,96978.64
2017-08-15T22:04:03.654Z,96978.95
2017-08-15T22:09:10.545Z,96988.17
2017-08-15T22:11:36.308Z,96983.45
2017-08-15T22:14:02.159Z,96998.16
2017-08-15T22:16:27.954Z,97002.13
2017-08-15T22:18:53.719Z,97002.86
2017-08-15T22:21:19.487Z,97013.17
2017-08-15T22:23:45.284Z,97014.95
2017-08-15T22:26:11.055Z,97020.46
2017-08-15T22:28:36.870Z,97036.28
2017-08-15T22:31:02.640Z,97046.16
2017-08-15T22:33:28.431Z,97045.55
2017-08-15T22:35:54.275Z,97040.12
2017-08-15T22:38:20.095Z,97051.92
2017-08-15T22:40:45.851Z,97061.23
2017-08-15T22:43:11.605Z,97062.12
2017-08-15T22:45:37.409Z,97065.11
2017-08-15T22:48:03.322Z,97058.03
2017-08-15T22:50:29.095Z,97065.03
2017-08-15T22:52:54.918Z,97065.11
2017-08-15T22:55:20.687Z,97063.84
2017-08-15T22:57:46.491Z,97065.52
2017-08-15T23:00:12.251Z,97069.69
2017-08-15T23:02:38.043Z,97073.02
2017-08-15T23:05:03.839Z,97080.14
2017-08-15T23:07:29.639Z,97083.59
2017-08-15T23:09:55.419Z,97082.99
2017-08-15T23:12:21.199Z,97084.14
2017-08-15T23:14:46.998Z,97088.25
2017-08-15T23:17:12.764Z,97098.06
2017-08-15T23:19:38.560Z,97103.20
2017-08-15T23:22:04.327Z,97110.07
2017-08-15T23:24:30.130Z,97116.97
2017-08-15T23:26:55.955Z,97117.38
2017-08-15T23:29:21.724Z,97130.75
2017-08-15T23:31:47.504Z,97131.20
2017-08-15T23:34:13.299Z,97127.02
2017-08-15T23:36:39.137Z,97130.33
2017-08-15T23:39:04.991Z,97129.83
2017-08-15T23:41:30.747Z,97124.78
2017-08-15T23:43:56.539Z,97126.70
2017-08-15T23:46:22.333Z,97113.64
2017-08-15T23:48:48.151Z,97110.00
2017-08-15T23:51:13.907Z,97102.81
2017-08-15T23:53:39.688Z,97102.84
2017-08-15T23:56:05.495Z,97096.73
2017-08-15T23:58:31.287Z,97098.75
